Time;durP1;ratioP1;P1;durP2;ratioP2;P2;SDS_P1;SDS_P2;PMS_P1;PMS_P2;Temp;Humidity;BMP_temperature;BMP_pressure;BME280_temperature;BME280_humidity;BME280_pressure;Samples;Min_cycle;Max_cycle;Signal;HPM_P1;HPM_P2
2023/09/12 00:00:26;;;;;;;;;;;19.90;72.50;;;;;;4126719;28;19929;-85
2023/09/12 00:02:47;;;;;;;;;;;19.90;72.50;;;;;;4123401;28;19914;-87
2023/09/12 00:05:08;;;;;;;;;;;19.90;72.60;;;;;;4109278;28;19922;-85
2023/09/12 00:07:28;;;;;;;;;;;19.90;72.70;;;;;;4119411;28;19968;-85
2023/09/12 00:09:49;;;;;;;;;;;19.80;72.70;;;;;;4122133;28;19972;-86
2023/09/12 00:12:09;;;;;;;;;;;19.80;72.90;;;;;;4118249;28;19952;-85
2023/09/12 00:14:30;;;;;;;;;;;19.80;72.80;;;;;;4104944;28;19922;-86
2023/09/12 00:16:52;;;;;;;;;;;19.80;72.80;;;;;;4119408;28;19922;-86
2023/09/12 00:19:14;;;;;;;;;;;19.80;72.80;;;;;;4120170;28;19910;-85
2023/09/12 00:21:34;;;;;;;;;;;19.80;72.90;;;;;;4108363;28;20068;-85
2023/09/12 00:23:55;;;;;;;;;;;19.80;73.00;;;;;;4109485;28;20001;-85
2023/09/12 00:26:15;;;;;;;;;;;19.80;73.30;;;;;;4107932;28;20095;-86
2023/09/12 00:28:38;;;;;;;;;;;19.80;73.30;;;;;;4114829;28;19914;-85
2023/09/12 00:30:43;;;;;;;;;;;19.80;73.30;;;;;;4104313;28;19921;-85
2023/09/12 00:32:45;;;;;;;;;;;19.80;73.30;;;;;;4122600;28;20860;-86
2023/09/12 00:34:46;;;;;;;;;;;19.80;73.20;;;;;;4125771;28;19922;-85
2023/09/12 00:36:46;;;;;;;;;;;19.80;73.30;;;;;;4092704;28;19918;-85
2023/09/12 00:38:47;;;;;;;;;;;19.80;73.40;;;;;;4108261;28;19965;-85
2023/09/12 00:40:48;;;;;;;;;;;19.80;73.30;;;;;;4107418;28;20300;-85
2023/09/12 00:42:48;;;;;;;;;;;19.80;73.60;;;;;;4106202;28;19928;-86
2023/09/12 00:44:52;;;;;;;;;;;19.80;73.60;;;;;;4107596;28;19924;-85
2023/09/12 00:46:53;;;;;;;;;;;19.80;74.50;;;;;;4107875;28;20370;-86
2023/09/12 00:48:54;;;;;;;;;;;19.80;73.90;;;;;;4106830;28;19918;-86
2023/09/12 00:50:55;;;;;;;;;;;19.80;74.00;;;;;;4113367;28;19918;-86
2023/09/12 00:52:56;;;;;;;;;;;19.80;74.10;;;;;;4104744;28;19995;-86
2023/09/12 00:54:57;;;;;;;;;;;19.80;74.10;;;;;;4106957;28;19917;-86
2023/09/12 00:56:58;;;;;;;;;;;19.70;75.00;;;;;;4126119;28;19929;-87
2023/09/12 00:58:58;;;;;;;;;;;19.70;74.20;;;;;;4105064;28;19926;-86
2023/09/12 01:00:59;;;;;;;;;;;19.70;74.10;;;;;;4119732;28;19917;-86
2023/09/12 01:03:00;;;;;;;;;;;19.70;74.30;;;;;;4122480;28;20333;-85
2023/09/12 01:05:01;;;;;;;;;;;19.70;74.30;;;;;;4101488;28;19945;-86
2023/09/12 01:07:04;;;;;;;;;;;19.70;74.10;;;;;;4121994;28;20052;-87
2023/09/12 01:09:05;;;;;;;;;;;19.70;74.20;;;;;;4105537;28;20307;-86
2023/09/12 01:11:06;;;;;;;;;;;19.70;74.50;;;;;;4104904;28;19977;-86
2023/09/12 01:13:06;;;;;;;;;;;19.70;74.50;;;;;;4099638;28;19926;-86
2023/09/12 01:15:13;;;;;;;;;;;19.70;74.60;;;;;;4105611;28;19918;-85
2023/09/12 01:17:14;;;;;;;;;;;19.70;74.60;;;;;;4106565;28;19918;-85
2023/09/12 01:19:15;;;;;;;;;;;19.70;74.70;;;;;;4122542;28;19922;-86
2023/09/12 01:21:31;;;;;;;;;;;19.70;74.80;;;;;;4107056;28;19985;-87
2023/09/12 01:23:47;;;;;;;;;;;19.70;75.10;;;;;;4095184;28;19922;-85
2023/09/12 01:26:03;;;;;;;;;;;19.70;74.80;;;;;;4119802;28;19973;-86
2023/09/12 01:28:05;;;;;;;;;;;19.70;74.80;;;;;;4113938;28;19930;-86
2023/09/12 01:30:07;;;;;;;;;;;19.70;75.00;;;;;;4091962;28;19938;-86
2023/09/12 01:32:08;;;;;;;;;;;19.70;75.10;;;;;;4122989;28;19963;-86
2023/09/12 01:34:10;;;;;;;;;;;19.70;75.10;;;;;;4102436;28;19926;-86
2023/09/12 01:36:10;;;;;;;;;;;19.70;75.10;;;;;;4133436;28;19924;-85
2023/09/12 01:38:12;;;;;;;;;;;19.70;76.00;;;;;;4130470;28;20096;-84
2023/09/12 01:40:17;;;;;;;;;;;19.70;74.90;;;;;;4130755;28;19907;-86
2023/09/12 01:42:20;;;;;;;;;;;19.80;75.10;;;;;;4132091;28;19917;-85
2023/09/12 01:44:23;;;;;;;;;;;19.70;75.30;;;;;;4131165;28;19953;-85
2023/09/12 01:46:24;;;;;;;;;;;19.70;75.30;;;;;;4128701;28;19913;-85
2023/09/12 01:48:27;;;;;;;;;;;19.70;75.80;;;;;;4121670;28;19926;-86
2023/09/12 01:50:28;;;;;;;;;;;19.70;75.20;;;;;;4122936;28;19937;-86
2023/09/12 01:52:29;;;;;;;;;;;19.70;75.70;;;;;;4107768;28;20388;-86
2023/09/12 01:54:30;;;;;;;;;;;19.80;75.90;;;;;;4109766;28;19921;-87
2023/09/12 01:56:31;;;;;;;;;;;19.70;75.70;;;;;;4119659;28;19914;-86
2023/09/12 01:58:31;;;;;;;;;;;19.70;75.50;;;;;;4105167;28;20008;-86
2023/09/12 02:00:33;;;;;;;;;;;19.70;75.60;;;;;;4105931;28;19925;-86
2023/09/12 02:02:33;;;;;;;;;;;19.70;76.00;;;;;;4105306;28;19969;-86
2023/09/12 02:04:34;;;;;;;;;;;19.80;75.80;;;;;;4084974;28;20348;-86
2023/09/12 02:06:35;;;;;;;;;;;19.70;75.90;;;;;;4107151;28;19933;-86
2023/09/12 02:08:36;;;;;;;;;;;19.70;76.10;;;;;;4106444;28;19922;-86
2023/09/12 02:10:36;;;;;;;;;;;19.70;76.00;;;;;;4103216;28;20463;-85
2023/09/12 02:12:37;;;;;;;;;;;19.70;76.00;;;;;;4107172;28;19914;-86
2023/09/12 02:14:38;;;;;;;;;;;19.70;75.90;;;;;;4110291;28;19988;-87
2023/09/12 02:16:38;;;;;;;;;;;19.70;76.00;;;;;;4104431;28;19918;-86
2023/09/12 02:18:39;;;;;;;;;;;19.70;75.90;;;;;;4104281;28;19968;-85
2023/09/12 02:20:40;;;;;;;;;;;19.70;76.30;;;;;;4104866;28;19921;-86
2023/09/12 02:22:41;;;;;;;;;;;19.70;76.10;;;;;;4107934;28;20375;-86
2023/09/12 02:24:42;;;;;;;;;;;19.70;76.20;;;;;;4109588;28;19925;-85
2023/09/12 02:26:42;;;;;;;;;;;19.70;76.20;;;;;;4107893;28;19974;-86
2023/09/12 02:28:44;;;;;;;;;;;19.70;76.20;;;;;;4122396;28;20363;-87
2023/09/12 02:30:45;;;;;;;;;;;19.70;75.80;;;;;;4104721;28;19919;-85
2023/09/12 02:32:46;;;;;;;;;;;19.70;75.60;;;;;;4106230;28;19918;-85
2023/09/12 02:34:46;;;;;;;;;;;19.70;75.70;;;;;;4088051;28;19966;-84
2023/09/12 02:36:47;;;;;;;;;;;19.70;75.60;;;;;;4107452;28;20394;-85
2023/09/12 02:38:48;;;;;;;;;;;19.70;75.40;;;;;;4103909;28;19922;-85
2023/09/12 02:40:48;;;;;;;;;;;19.70;75.30;;;;;;4100063;28;19929;-86
2023/09/12 02:42:49;;;;;;;;;;;19.60;75.30;;;;;;4084793;28;20332;-86
2023/09/12 02:45:10;;;;;;;;;;;19.70;75.50;;;;;;4107170;28;19910;-85
2023/09/12 02:47:30;;;;;;;;;;;19.60;75.60;;;;;;4108383;28;19961;-86
2023/09/12 02:49:51;;;;;;;;;;;19.60;75.70;;;;;;4118401;28;19949;-86
2023/09/12 02:52:11;;;;;;;;;;;19.60;75.80;;;;;;4105064;28;19950;-86
2023/09/12 02:54:32;;;;;;;;;;;19.60;75.90;;;;;;4109377;28;19957;-86
2023/09/12 02:56:33;;;;;;;;;;;19.60;76.00;;;;;;4127551;28;19937;-86
2023/09/12 02:58:53;;;;;;;;;;;19.50;75.80;;;;;;4119697;28;19992;-86
2023/09/12 03:01:18;;;;;;;;;;;19.60;76.00;;;;;;4107178;28;20044;-87
2023/09/12 03:03:41;;;;;;;;;;;19.50;75.90;;;;;;4118466;28;20005;-86
2023/09/12 03:06:05;;;;;;;;;;;19.60;75.80;;;;;;4105822;28;20001;-86
2023/09/12 03:08:25;;;;;;;;;;;19.50;75.70;;;;;;4107261;28;19925;-87
2023/09/12 03:10:52;;;;;;;;;;;19.50;75.80;;;;;;4105329;28;19925;-86
2023/09/12 03:13:13;;;;;;;;;;;19.50;75.70;;;;;;4102192;28;20013;-87
2023/09/12 03:15:37;;;;;;;;;;;19.50;75.80;;;;;;4103105;28;20005;-87
2023/09/12 03:17:38;;;;;;;;;;;19.50;75.90;;;;;;4104131;28;19918;-85
2023/09/12 03:19:38;;;;;;;;;;;19.40;75.90;;;;;;4104248;28;20049;-85
2023/09/12 03:21:39;;;;;;;;;;;19.50;76.20;;;;;;4109007;28;20532;-85
2023/09/12 03:23:40;;;;;;;;;;;19.50;76.10;;;;;;4108068;28;20374;-85
2023/09/12 03:25:40;;;;;;;;;;;19.50;76.10;;;;;;4108813;28;20012;-85
2023/09/12 03:27:41;;;;;;;;;;;19.40;76.10;;;;;;4108257;28;20029;-86
2023/09/12 03:29:41;;;;;;;;;;;19.40;76.00;;;;;;4108141;28;19944;-85
2023/09/12 03:31:42;;;;;;;;;;;19.50;76.20;;;;;;4110407;28;19997;-86
2023/09/12 03:33:47;;;;;;;;;;;19.50;76.30;;;;;;4107573;28;20467;-85
2023/09/12 03:35:48;;;;;;;;;;;19.40;76.20;;;;;;4108984;28;19930;-86
2023/09/12 03:37:48;;;;;;;;;;;19.40;76.20;;;;;;4122502;28;19921;-86
2023/09/12 03:39:49;;;;;;;;;;;19.40;76.30;;;;;;4126088;28;20280;-85
2023/09/12 03:41:50;;;;;;;;;;;19.40;76.30;;;;;;4107851;28;19921;-85
2023/09/12 03:43:52;;;;;;;;;;;19.50;76.30;;;;;;4107847;28;19925;-85
2023/09/12 03:45:53;;;;;;;;;;;19.40;76.20;;;;;;4108727;28;20371;-85
2023/09/12 03:48:14;;;;;;;;;;;19.40;76.30;;;;;;4107448;28;19920;-86
2023/09/12 03:50:18;;;;;;;;;;;19.40;76.40;;;;;;4111035;28;19978;-86
2023/09/12 03:52:39;;;;;;;;;;;19.50;77.20;;;;;;4108441;28;19918;-86
2023/09/12 03:55:00;;;;;;;;;;;19.40;76.60;;;;;;4109485;28;20020;-86
2023/09/12 03:57:21;;;;;;;;;;;19.50;76.60;;;;;;4106272;28;20036;-86
2023/09/12 03:59:42;;;;;;;;;;;19.40;76.60;;;;;;4110571;28;19933;-86
2023/09/12 04:02:03;;;;;;;;;;;19.40;76.70;;;;;;4106258;28;19922;-86
2023/09/12 04:04:23;;;;;;;;;;;19.40;76.50;;;;;;4101375;28;19922;-86
2023/09/12 04:06:29;;;;;;;;;;;19.40;76.60;;;;;;4121985;28;19925;-87
2023/09/12 04:08:29;;;;;;;;;;;19.50;76.60;;;;;;4122598;28;19929;-87
2023/09/12 04:10:32;;;;;;;;;;;19.40;76.60;;;;;;4123183;28;19918;-86
2023/09/12 04:12:33;;;;;;;;;;;19.40;76.60;;;;;;4107261;28;19918;-88
2023/09/12 04:14:33;;;;;;;;;;;19.40;76.50;;;;;;4120324;28;19921;-86
2023/09/12 04:16:34;;;;;;;;;;;19.50;76.60;;;;;;4107310;28;19918;-87
2023/09/12 04:18:34;;;;;;;;;;;19.40;76.50;;;;;;4105387;28;19997;-86
2023/09/12 04:20:35;;;;;;;;;;;19.40;76.70;;;;;;4105548;28;20434;-87
2023/09/12 04:22:35;;;;;;;;;;;19.50;76.80;;;;;;4106424;28;19968;-85
2023/09/12 04:24:36;;;;;;;;;;;19.40;76.90;;;;;;4107952;28;19918;-86
2023/09/12 04:26:36;;;;;;;;;;;19.40;77.40;;;;;;4124794;28;19914;-87
2023/09/12 04:28:37;;;;;;;;;;;19.40;77.10;;;;;;4108618;28;20000;-87
2023/09/12 04:30:39;;;;;;;;;;;19.50;77.20;;;;;;4104386;28;19926;-86
2023/09/12 04:32:40;;;;;;;;;;;19.40;77.20;;;;;;4104898;28;19932;-86
2023/09/12 04:34:42;;;;;;;;;;;19.40;77.20;;;;;;4095584;28;19969;-86
2023/09/12 04:36:43;;;;;;;;;;;19.40;76.80;;;;;;4122706;28;20499;-86
2023/09/12 04:38:44;;;;;;;;;;;19.40;76.90;;;;;;4090791;28;20016;-87
2023/09/12 04:40:52;;;;;;;;;;;19.40;76.80;;;;;;4108491;28;19964;-86
2023/09/12 04:42:56;;;;;;;;;;;19.50;77.10;;;;;;4104191;28;19961;-87
2023/09/12 04:44:57;;;;;;;;;;;19.40;77.10;;;;;;4115347;28;19924;-86
2023/09/12 04:46:57;;;;;;;;;;;19.40;76.90;;;;;;4104809;28;19918;-85
2023/09/12 04:48:58;;;;;;;;;;;19.40;76.80;;;;;;4105831;28;19918;-88
2023/09/12 04:50:59;;;;;;;;;;;19.40;77.00;;;;;;4106766;28;20001;-87
2023/09/12 04:52:59;;;;;;;;;;;19.40;76.70;;;;;;4123343;28;19968;-88
2023/09/12 04:55:01;;;;;;;;;;;19.30;76.90;;;;;;4104466;28;19918;-85
2023/09/12 04:57:02;;;;;;;;;;;19.40;77.10;;;;;;4104119;28;19980;-86
2023/09/12 04:59:03;;;;;;;;;;;19.40;77.10;;;;;;4106154;28;20463;-88
2023/09/12 05:01:04;;;;;;;;;;;19.40;77.00;;;;;;4104716;28;20037;-88
2023/09/12 05:03:06;;;;;;;;;;;19.40;77.10;;;;;;4087998;28;19922;-88
2023/09/12 05:05:08;;;;;;;;;;;19.40;77.00;;;;;;4089708;28;19929;-86
2023/09/12 05:07:08;;;;;;;;;;;19.40;77.30;;;;;;4112340;28;20300;-87
2023/09/12 05:09:10;;;;;;;;;;;19.40;77.90;;;;;;4109354;28;19929;-87
2023/09/12 05:11:11;;;;;;;;;;;19.40;77.60;;;;;;4108295;28;19918;-88
2023/09/12 05:13:14;;;;;;;;;;;19.40;77.50;;;;;;4103908;28;19926;-87
2023/09/12 05:15:15;;;;;;;;;;;19.40;77.50;;;;;;4092667;28;19961;-88
2023/09/12 05:17:16;;;;;;;;;;;19.40;77.60;;;;;;4099372;28;19922;-87
2023/09/12 05:19:17;;;;;;;;;;;19.40;77.50;;;;;;4117046;28;19956;-88
2023/09/12 05:21:17;;;;;;;;;;;19.40;77.50;;;;;;4105367;28;19926;-85
2023/09/12 05:23:18;;;;;;;;;;;19.40;77.50;;;;;;4121055;28;19914;-87
2023/09/12 05:25:18;;;;;;;;;;;19.40;77.30;;;;;;4091563;28;19922;-87
2023/09/12 05:27:19;;;;;;;;;;;19.50;77.90;;;;;;4107436;28;19914;-87
2023/09/12 05:29:19;;;;;;;;;;;19.40;77.80;;;;;;4107490;28;20008;-87
2023/09/12 05:31:20;;;;;;;;;;;19.40;77.70;;;;;;4109841;28;19914;-87
2023/09/12 05:33:23;;;;;;;;;;;19.40;77.70;;;;;;4106977;28;19922;-88
2023/09/12 05:35:26;;;;;;;;;;;19.40;77.60;;;;;;4123886;28;19914;-88
2023/09/12 05:37:27;;;;;;;;;;;19.40;77.60;;;;;;4124651;28;19917;-87
2023/09/12 05:39:28;;;;;;;;;;;19.30;77.50;;;;;;4099641;28;20289;-87
2023/09/12 05:41:28;;;;;;;;;;;19.40;78.30;;;;;;4104075;28;19994;-86
2023/09/12 05:43:29;;;;;;;;;;;19.30;78.40;;;;;;4122998;28;19991;-87
2023/09/12 05:45:32;;;;;;;;;;;19.40;79.20;;;;;;4092673;28;19918;-87
2023/09/12 05:47:33;;;;;;;;;;;19.40;79.10;;;;;;4110822;28;19921;-86
2023/09/12 05:49:34;;;;;;;;;;;19.40;78.90;;;;;;4105646;28;19918;-87
2023/09/12 05:51:35;;;;;;;;;;;19.40;78.60;;;;;;4137467;28;19904;-87
2023/09/12 05:53:35;;;;;;;;;;;19.30;78.60;;;;;;4149922;28;19934;-87
2023/09/12 05:55:36;;;;;;;;;;;19.30;78.40;;;;;;4118208;28;19981;-87
2023/09/12 05:57:37;;;;;;;;;;;19.40;78.90;;;;;;4129932;28;19917;-87
2023/09/12 05:59:39;;;;;;;;;;;19.40;78.80;;;;;;4123317;28;19965;-87
2023/09/12 06:01:40;;;;;;;;;;;19.40;78.80;;;;;;4122548;28;19940;-87
2023/09/12 06:03:41;;;;;;;;;;;19.40;79.00;;;;;;4102436;28;20024;-86
2023/09/12 06:05:42;;;;;;;;;;;19.40;79.20;;;;;;4108131;28;19946;-87
2023/09/12 06:07:43;;;;;;;;;;;19.40;79.20;;;;;;4106985;28;20017;-88
2023/09/12 06:09:44;;;;;;;;;;;19.40;79.50;;;;;;4123787;28;19965;-88
2023/09/12 06:11:50;;;;;;;;;;;19.40;79.40;;;;;;4109092;28;19928;-87
2023/09/12 06:13:50;;;;;;;;;;;19.40;79.00;;;;;;4106054;28;20404;-87
2023/09/12 06:15:53;;;;;;;;;;;19.40;78.70;;;;;;4106698;28;19961;-86
2023/09/12 06:18:13;;;;;;;;;;;19.40;78.60;;;;;;4108757;28;19957;-87
2023/09/12 06:20:15;;;;;;;;;;;19.40;78.80;;;;;;4110659;28;20017;-88
2023/09/12 06:22:36;;;;;;;;;;;19.40;78.70;;;;;;4103683;28;20423;-86
2023/09/12 06:24:56;;;;;;;;;;;19.40;79.80;;;;;;4105740;28;20364;-87
2023/09/12 06:27:18;;;;;;;;;;;19.40;78.70;;;;;;4105380;28;20462;-87
2023/09/12 06:29:39;;;;;;;;;;;19.40;79.00;;;;;;4102993;28;20506;-86
2023/09/12 06:31:59;;;;;;;;;;;19.50;79.50;;;;;;4103551;28;20486;-87
2023/09/12 06:34:20;;;;;;;;;;;19.40;78.60;;;;;;4112877;28;19968;-86
2023/09/12 06:36:44;;;;;;;;;;;19.40;79.20;;;;;;4128826;28;20384;-86
2023/09/12 06:39:05;;;;;;;;;;;19.50;79.20;;;;;;4112570;28;20419;-88
2023/09/12 06:41:26;;;;;;;;;;;19.50;79.40;;;;;;4108801;28;20669;-87
2023/09/12 06:43:47;;;;;;;;;;;19.50;79.30;;;;;;4109061;28;20372;-86
2023/09/12 06:46:08;;;;;;;;;;;19.50;79.60;;;;;;4118020;28;20419;-86
2023/09/12 06:48:29;;;;;;;;;;;19.50;79.40;;;;;;4104245;28;20559;-85
2023/09/12 06:50:29;;;;;;;;;;;19.50;79.10;;;;;;4102795;28;19946;-86
2023/09/12 06:52:32;;;;;;;;;;;19.60;79.10;;;;;;4104453;28;19993;-86
2023/09/12 06:54:33;;;;;;;;;;;19.50;79.20;;;;;;4109380;28;19926;-87
2023/09/12 06:56:37;;;;;;;;;;;19.60;79.20;;;;;;4122068;28;20016;-86
2023/09/12 06:58:38;;;;;;;;;;;19.60;79.20;;;;;;4120079;28;19917;-86
2023/09/12 07:00:39;;;;;;;;;;;19.60;79.10;;;;;;4089725;28;19921;-86
2023/09/12 07:02:39;;;;;;;;;;;19.60;79.60;;;;;;4121543;28;19914;-86
2023/09/12 07:04:40;;;;;;;;;;;19.60;79.50;;;;;;4110961;28;20415;-86
2023/09/12 07:06:40;;;;;;;;;;;19.60;79.80;;;;;;4110276;28;20371;-87
2023/09/12 07:08:41;;;;;;;;;;;19.70;79.80;;;;;;4090556;28;20336;-86
2023/09/12 07:10:45;;;;;;;;;;;19.70;80.10;;;;;;4106294;28;19945;-87
2023/09/12 07:12:46;;;;;;;;;;;19.70;79.60;;;;;;4112330;28;20364;-86
2023/09/12 07:14:47;;;;;;;;;;;19.70;79.50;;;;;;4107602;28;19917;-86
2023/09/12 07:16:47;;;;;;;;;;;19.80;80.00;;;;;;4104122;28;20427;-86
2023/09/12 07:18:53;;;;;;;;;;;19.80;79.70;;;;;;4110134;28;20415;-87
2023/09/12 07:21:02;;;;;;;;;;;19.80;79.60;;;;;;4092935;28;19945;-86
2023/09/12 07:23:03;;;;;;;;;;;19.90;80.00;;;;;;4108499;28;19918;-86
2023/09/12 07:25:16;;;;;;;;;;;19.90;80.10;;;;;;4104803;28;19922;-86
2023/09/12 07:27:20;;;;;;;;;;;19.90;80.20;;;;;;4124711;28;19918;-88
2023/09/12 07:29:21;;;;;;;;;;;20.00;79.80;;;;;;4105356;28;19929;-87
2023/09/12 07:31:23;;;;;;;;;;;20.10;80.00;;;;;;4123423;28;20483;-87
2023/09/12 07:33:43;;;;;;;;;;;19.90;80.10;;;;;;4105076;28;19918;-86
2023/09/12 07:36:04;;;;;;;;;;;20.10;79.90;;;;;;4107909;28;19925;-87
2023/09/12 07:38:25;;;;;;;;;;;20.10;80.20;;;;;;4119725;28;20208;-86
2023/09/12 07:40:45;;;;;;;;;;;20.20;80.40;;;;;;4109313;28;20037;-87
2023/09/12 07:43:10;;;;;;;;;;;20.20;80.20;;;;;;4105470;28;20412;-87
2023/09/12 07:45:31;;;;;;;;;;;20.30;80.10;;;;;;4108367;28;19929;-87
2023/09/12 07:47:54;;;;;;;;;;;20.40;80.00;;;;;;4122111;28;19913;-87
2023/09/12 07:50:15;;;;;;;;;;;20.50;80.90;;;;;;4109362;28;19940;-87
2023/09/12 07:52:35;;;;;;;;;;;20.40;81.00;;;;;;4120554;28;19957;-88
2023/09/12 07:55:06;;;;;;;;;;;20.60;80.60;;;;;;4118290;28;19989;-88
2023/09/12 07:57:11;;;;;;;;;;;20.70;81.00;;;;;;4123751;28;20477;-87
2023/09/12 07:59:15;;;;;;;;;;;20.70;80.80;;;;;;4109040;28;20332;-87
2023/09/12 08:01:19;;;;;;;;;;;20.80;80.50;;;;;;4105119;28;19918;-87
2023/09/12 08:03:19;;;;;;;;;;;20.90;80.40;;;;;;4122670;28;19988;-88
2023/09/12 08:05:28;;;;;;;;;;;20.90;80.20;;;;;;4114197;28;20368;-87
2023/09/12 08:07:31;;;;;;;;;;;20.90;80.20;;;;;;4110754;28;19914;-87
2023/09/12 08:09:48;;;;;;;;;;;21.00;79.90;;;;;;4091864;28;19914;-88
2023/09/12 08:11:51;;;;;;;;;;;21.00;79.60;;;;;;4106995;28;20037;-87
2023/09/12 08:13:52;;;;;;;;;;;21.10;79.80;;;;;;4105513;28;21887;-87
2023/09/12 08:16:02;;;;;;;;;;;21.20;80.00;;;;;;4106744;28;19914;-88
2023/09/12 08:18:05;;;;;;;;;;;21.20;79.70;;;;;;4123510;28;19922;-87
2023/09/12 08:20:09;;;;;;;;;;;21.30;79.70;;;;;;4125619;28;19918;-87
2023/09/12 08:22:13;;;;;;;;;;;21.30;79.50;;;;;;4107881;28;20041;-85
2023/09/12 08:24:14;;;;;;;;;;;21.40;79.50;;;;;;4121654;28;19914;-88
2023/09/12 08:26:23;;;;;;;;;;;21.40;79.10;;;;;;4125579;28;19918;-87
2023/09/12 08:28:27;;;;;;;;;;;21.50;78.60;;;;;;4093273;28;19919;-86
2023/09/12 08:30:33;;;;;;;;;;;21.50;78.30;;;;;;4110483;28;19918;-88
2023/09/12 08:32:43;;;;;;;;;;;21.50;77.70;;;;;;4104870;28;20327;-90
2023/09/12 08:34:53;;;;;;;;;;;21.50;77.30;;;;;;4106499;28;19925;-87
2023/09/12 08:36:56;;;;;;;;;;;21.50;76.80;;;;;;4120394;28;19917;-89
2023/09/12 08:39:07;;;;;;;;;;;21.60;76.90;;;;;;4118489;28;19964;-89
2023/09/12 08:41:18;;;;;;;;;;;21.60;76.30;;;;;;4110093;28;20014;-89
2023/09/12 08:43:22;;;;;;;;;;;21.60;75.70;;;;;;4124088;28;20254;-90
2023/09/12 08:45:32;;;;;;;;;;;21.60;75.90;;;;;;4107222;28;19914;-89
2023/09/12 08:47:34;;;;;;;;;;;21.60;75.50;;;;;;4109618;28;20371;-87
2023/09/12 08:49:35;;;;;;;;;;;21.60;75.50;;;;;;4127634;28;19918;-91
2023/09/12 08:51:53;;;;;;;;;;;21.70;75.40;;;;;;4137573;28;19902;-88
2023/09/12 08:53:59;;;;;;;;;;;21.70;75.30;;;;;;4129815;28;19922;-89
2023/09/12 08:56:21;;;;;;;;;;;21.70;75.50;;;;;;4122926;28;19918;-90
2023/09/12 08:58:35;;;;;;;;;;;21.70;75.00;;;;;;4109126;28;19941;-88
2023/09/12 09:01:04;;;;;;;;;;;21.80;74.40;;;;;;4107280;28;19918;-89
2023/09/12 09:03:07;;;;;;;;;;;21.80;74.40;;;;;;4047151;29;19926;-88
2023/09/12 09:05:29;;;;;;;;;;;21.90;74.70;;;;;;4052658;29;20333;-89
2023/09/12 09:07:40;;;;;;;;;;;21.90;74.60;;;;;;4064056;29;19986;-89
2023/09/12 09:10:01;;;;;;;;;;;21.90;74.20;;;;;;4071346;29;19945;-91
2023/09/12 09:12:38;;;;;;;;;;;;;;;;;;;;;
2023/09/12 09:14:42;;;;;;;;;;;22.10;73.00;;;;;;4045206;29;20698;-89
2023/09/12 09:20:11;;;;;;;;;;;22.20;74.00;;;;;;4056695;29;19923;-91
2023/09/12 09:22:44;;;;;;;;;;;22.30;71.70;;;;;;4061424;29;19965;-89
2023/09/12 09:25:33;;;;;;;;;;;22.30;71.70;;;;;;4046212;29;19930;-90
2023/09/12 09:27:56;;;;;;;;;;;22.40;71.20;;;;;;4015420;29;19982;-88
2023/09/12 09:30:49;;;;;;;;;;;22.50;71.60;;;;;;3998785;29;20023;-90
2023/09/12 09:33:36;;;;;;;;;;;22.50;71.40;;;;;;4015178;29;19982;-88
2023/09/12 09:36:12;;;;;;;;;;;22.50;70.30;;;;;;3985566;29;19936;-92
2023/09/12 09:38:35;;;;;;;;;;;22.50;70.00;;;;;;3973026;29;20016;-89
2023/09/12 09:40:45;;;;;;;;;;;22.60;71.10;;;;;;4009121;29;19919;-89
2023/09/12 09:42:46;;;;;;;;;;;22.60;69.70;;;;;;3985093;29;20426;-88
2023/09/12 09:47:23;;;;;;;;;;;22.60;68.60;;;;;;3984595;29;19948;-89
2023/09/12 09:49:27;;;;;;;;;;;22.60;68.00;;;;;;4001775;29;19924;-91
2023/09/12 09:51:32;;;;;;;;;;;22.60;67.80;;;;;;3971575;29;19933;-90
2023/09/12 09:59:19;;;;;;;;;;;22.60;67.40;;;;;;3987448;29;20070;-88
2023/09/12 10:01:23;;;;;;;;;;;22.60;68.30;;;;;;3982887;29;19924;-89
2023/09/12 10:03:44;;;;;;;;;;;22.70;69.00;;;;;;4000017;29;19966;-90
2023/09/12 10:05:56;;;;;;;;;;;22.70;68.90;;;;;;4027974;29;19920;-88
2023/09/12 10:08:01;;;;;;;;;;;22.70;68.90;;;;;;4086555;23;19944;-89
2023/09/12 10:10:14;;;;;;;;;;;22.80;69.40;;;;;;4104751;28;19950;-90
2023/09/12 10:12:30;;;;;;;;;;;22.80;68.10;;;;;;4138170;28;19913;-92
2023/09/12 10:15:02;;;;;;;;;;;22.80;66.90;;;;;;4125544;28;19932;-88
2023/09/12 10:17:25;;;;;;;;;;;22.90;67.40;;;;;;4140976;28;21711;-90
2023/09/12 10:20:03;;;;;;;;;;;22.90;66.40;;;;;;4128752;28;19922;-90
2023/09/12 10:22:23;;;;;;;;;;;23.00;67.00;;;;;;4109972;28;19918;-91
2023/09/12 10:24:59;;;;;;;;;;;23.00;67.20;;;;;;4121192;28;20004;-90
2023/09/12 10:27:02;;;;;;;;;;;23.10;67.80;;;;;;4111555;28;19922;-91
2023/09/12 10:29:47;;;;;;;;;;;23.10;68.00;;;;;;4106103;28;19946;-90
2023/09/12 10:32:26;;;;;;;;;;;23.20;68.30;;;;;;4103346;28;19918;-91
2023/09/12 10:34:58;;;;;;;;;;;23.30;67.30;;;;;;4107637;28;19929;-90
2023/09/12 10:39:50;;;;;;;;;;;;;;;;;;;;;
2023/09/12 10:45:13;;;;;;;;;;;23.70;68.00;;;;;;4138230;28;19918;-89
2023/09/12 10:47:46;;;;;;;;;;;23.70;65.30;;;;;;4148181;28;19913;-91
2023/09/12 10:50:03;;;;;;;;;;;23.80;63.70;;;;;;4118297;28;20479;-90
2023/09/12 10:52:44;;;;;;;;;;;23.80;65.00;;;;;;4122103;28;19961;-91
2023/09/12 10:54:49;;;;;;;;;;;23.80;63.90;;;;;;4148333;28;19928;-91
2023/09/12 10:57:33;;;;;;;;;;;23.90;65.60;;;;;;4115678;28;20306;-91
2023/09/12 11:00:10;;;;;;;;;;;23.90;64.60;;;;;;4123827;28;19944;-91
2023/09/12 11:02:35;;;;;;;;;;;23.90;62.50;;;;;;4129139;28;19914;-91
2023/09/12 11:05:23;;;;;;;;;;;23.90;63.00;;;;;;4120443;28;19918;-91
2023/09/12 11:07:49;;;;;;;;;;;24.00;61.70;;;;;;4127006;28;19914;-93
2023/09/12 11:10:15;;;;;;;;;;;24.00;63.20;;;;;;4123768;28;21583;-91
2023/09/12 11:13:00;;;;;;;;;;;24.00;62.30;;;;;;4123293;28;19921;-92
2023/09/12 11:15:22;;;;;;;;;;;23.90;63.00;;;;;;4123522;28;20403;-93
2023/09/12 11:18:06;;;;;;;;;;;24.00;63.20;;;;;;4124100;28;19996;-91
2023/09/12 11:20:20;;;;;;;;;;;23.90;61.90;;;;;;4085796;28;19946;-91
2023/09/12 11:22:44;;;;;;;;;;;24.00;62.10;;;;;;4078136;28;20247;-93
2023/09/12 11:24:55;;;;;;;;;;;23.90;62.50;;;;;;4104562;28;19949;-93
2023/09/12 11:27:00;;;;;;;;;;;23.90;61.40;;;;;;4107014;28;20368;-90
2023/09/12 11:31:48;;;;;;;;;;;24.00;62.90;;;;;;4106049;28;19933;-91
2023/09/12 11:33:49;;;;;;;;;;;24.00;62.10;;;;;;4060702;29;19938;-88
2023/09/12 11:35:51;;;;;;;;;;;24.00;63.10;;;;;;4074812;29;19954;-91
2023/09/12 11:37:57;;;;;;;;;;;24.00;62.50;;;;;;4059286;29;19923;-92
2023/09/12 11:39:57;;;;;;;;;;;24.00;62.40;;;;;;4074439;29;19915;-92
2023/09/12 11:42:10;;;;;;;;;;;24.00;63.10;;;;;;4062241;29;20055;-91
2023/09/12 11:44:14;;;;;;;;;;;24.00;62.60;;;;;;4070026;29;19919;-91
2023/09/12 11:46:26;;;;;;;;;;;24.00;63.20;;;;;;4076377;29;19915;-90
2023/09/12 11:48:38;;;;;;;;;;;24.00;61.80;;;;;;4075904;29;20062;-90
2023/09/12 11:50:57;;;;;;;;;;;24.00;62.40;;;;;;4067522;29;19915;-93
2023/09/12 11:53:26;;;;;;;;;;;24.00;61.30;;;;;;4080590;29;19921;-91
2023/09/12 11:55:45;;;;;;;;;;;24.00;61.80;;;;;;4058036;29;20385;-91
2023/09/12 11:58:23;;;;;;;;;;;24.10;62.10;;;;;;4062360;29;19943;-92
2023/09/12 12:00:46;;;;;;;;;;;;;;;;;;;;;
2023/09/12 12:03:52;;;;;;;;;;;;;;;;;;;;;
2023/09/12 12:09:41;;;;;;;;;;;24.10;61.70;;;;;;4001748;29;20008;-92
2023/09/12 12:11:42;;;;;;;;;;;24.20;60.60;;;;;;3948711;29;19929;-89
2023/09/12 12:13:43;;;;;;;;;;;24.20;60.80;;;;;;3943456;30;20032;-91
2023/09/12 12:15:53;;;;;;;;;;;24.20;61.50;;;;;;3941208;30;20004;-91
2023/09/12 12:18:06;;;;;;;;;;;24.10;61.20;;;;;;3953420;29;19917;-91
2023/09/12 12:20:11;;;;;;;;;;;24.20;61.00;;;;;;3958760;29;19958;-93
2023/09/12 12:22:55;;;;;;;;;;;24.10;59.70;;;;;;3956924;29;19921;-92
2023/09/12 12:25:18;;;;;;;;;;;24.20;60.00;;;;;;3950151;29;19921;-91
2023/09/12 12:27:35;;;;;;;;;;;24.20;59.90;;;;;;3955103;29;20037;-92
2023/09/12 12:37:18;;;;;;;;;;;24.10;58.90;;;;;;3939779;30;19965;-89
2023/09/12 12:39:20;;;;;;;;;;;24.10;59.40;;;;;;3935717;30;20384;-90
2023/09/12 12:41:25;;;;;;;;;;;24.10;59.20;;;;;;3923037;30;19922;-89
2023/09/12 12:43:27;;;;;;;;;;;24.10;59.70;;;;;;3914831;30;19922;-90
2023/09/12 12:45:27;;;;;;;;;;;24.10;59.90;;;;;;3907375;30;20430;-87
2023/09/12 12:47:31;;;;;;;;;;;24.10;60.10;;;;;;3893101;29;19926;-89
2023/09/12 12:49:41;;;;;;;;;;;24.10;60.30;;;;;;3963844;29;19932;-90
2023/09/12 12:51:42;;;;;;;;;;;24.10;59.80;;;;;;3964811;29;19928;-89
2023/09/12 12:53:45;;;;;;;;;;;24.10;60.00;;;;;;3968463;29;20376;-91
2023/09/12 12:55:46;;;;;;;;;;;24.00;60.00;;;;;;3964546;29;19970;-91
2023/09/12 12:57:51;;;;;;;;;;;24.00;59.70;;;;;;3975618;29;19921;-89
2023/09/12 12:59:54;;;;;;;;;;;23.90;59.80;;;;;;3963760;29;19921;-90
2023/09/12 13:01:55;;;;;;;;;;;23.90;60.00;;;;;;3961721;29;19993;-90
2023/09/12 13:03:58;;;;;;;;;;;23.90;60.50;;;;;;3978520;29;19929;-91
2023/09/12 13:05:59;;;;;;;;;;;23.90;60.70;;;;;;3978652;29;19928;-89
2023/09/12 13:08:00;;;;;;;;;;;23.90;60.90;;;;;;3949649;29;20360;-91